Time;durP1;ratioP1;P1;durP2;ratioP2;P2;SDS_P1;SDS_P2;PMS_P1;PMS_P2;Temp;Humidity;BMP_temperature;BMP_pressure;BME280_temperature;BME280_humidity;BME280_pressure;Samples;Min_cycle;Max_cycle;Signal;HPM_P1;HPM_P2
2024/02/12 00:01:08;;;;;;;;;6.33;2.33;;;;;8.86;69.80;100064.56;2021572;28;2737797;-89
2024/02/12 00:02:21;;;;;;;;;1.83;1.83;;;;;8.85;70.16;100065.47;2030230;27;2741963;-88
2024/02/12 00:03:38;;;;;;;;;5.00;3.00;;;;;8.85;69.84;100070.69;2020056;28;2752411;-89
2024/02/12 00:04:52;;;;;;;;;7.67;6.50;;;;;8.83;70.14;100073.38;2029419;27;2752344;-89
2024/02/12 00:06:07;;;;;;;;;5.83;4.00;;;;;8.82;70.04;100070.81;2035163;27;2748197;-90
2024/02/12 00:07:20;;;;;;;;;9.67;9.17;;;;;8.80;69.89;100068.25;2029087;28;2763818;-89
2024/02/12 00:08:33;;;;;;;;;7.33;4.83;;;;;8.80;70.28;100077.88;2024471;28;2742973;-89
2024/02/12 00:09:47;;;;;;;;;6.50;4.00;;;;;8.77;70.03;100074.44;2021285;27;2745093;-89
2024/02/12 00:11:00;;;;;;;;;4.50;4.00;;;;;8.74;69.77;100066.69;2044057;28;2730489;-89
2024/02/12 00:12:15;;;;;;;;;4.67;3.50;;;;;8.73;69.83;100066.75;2045356;28;2750277;-89
2024/02/12 00:13:28;;;;;;;;;3.17;3.17;;;;;8.71;70.16;100074.69;2028378;28;2747147;-89
2024/02/12 00:14:45;;;;;;;;;3.17;2.50;;;;;8.68;70.03;100072.16;2029138;27;2730474;-90
2024/02/12 00:15:58;;;;;;;;;5.33;4.17;;;;;8.66;70.20;100081.84;2044059;28;2754424;-89
2024/02/12 00:17:09;;;;;;;;;6.00;4.00;;;;;8.63;69.83;100080.19;2003699;27;2750787;-89
2024/02/12 00:18:23;;;;;;;;;5.33;4.00;;;;;8.60;70.26;100071.56;2025678;27;2756519;-90
2024/02/12 00:19:37;;;;;;;;;3.00;3.00;;;;;8.61;70.56;100081.16;2023679;27;2754464;-89
2024/02/12 00:20:47;;;;;;;;;3.67;3.00;;;;;8.55;69.93;100079.56;2026161;27;2754431;-89
2024/02/12 00:22:00;;;;;;;;;4.00;2.67;;;;;8.54;70.01;100083.94;2051912;27;2754423;-89
2024/02/12 00:23:13;;;;;;;;;2.67;2.50;;;;;8.53;70.09;100077.00;2060650;27;2739843;-89
2024/02/12 00:24:23;;;;;;;;;3.00;3.00;;;;;8.52;70.54;100084.94;2009349;27;3463815;-89
2024/02/12 00:25:34;;;;;;;;;2.00;2.00;;;;;8.52;70.39;100080.53;2059213;27;2727381;-90
2024/02/12 00:26:47;;;;;;;;;4.50;2.00;;;;;8.50;70.50;100078.88;2058667;27;2734645;-90
2024/02/12 00:28:01;;;;;;;;;6.00;3.00;;;;;8.51;70.41;100086.69;2052879;27;2739134;-90
2024/02/12 00:29:13;;;;;;;;;3.00;3.00;;;;;8.50;70.37;100081.50;2008762;27;2753502;-89
2024/02/12 00:30:26;;;;;;;;;3.83;3.17;;;;;8.48;70.47;100084.19;2060063;27;2746129;-89
2024/02/12 00:31:39;;;;;;;;;5.33;3.17;;;;;8.47;70.69;100082.44;2022656;28;2744503;-90
2024/02/12 00:32:54;;;;;;;;;6.00;4.33;;;;;8.46;70.38;100085.13;2023733;27;2750272;-89
2024/02/12 00:34:08;;;;;;;;;6.17;3.50;;;;;8.45;70.80;100089.50;2041057;27;2736746;-89
2024/02/12 00:35:21;;;;;;;;;5.00;4.33;;;;;8.43;70.78;100080.84;2028091;28;2749238;-89
2024/02/12 00:36:35;;;;;;;;;3.33;3.33;;;;;8.42;70.43;100084.41;2028588;27;2754448;-89
2024/02/12 00:37:49;;;;;;;;;4.83;3.00;;;;;8.40;70.63;100083.56;2035522;27;2754430;-89
2024/02/12 00:39:07;;;;;;;;;5.83;4.33;;;;;8.39;70.60;100090.59;2036905;27;2747650;-89
2024/02/12 00:40:20;;;;;;;;;3.67;3.00;;;;;8.37;70.90;100091.56;2035090;27;2754842;-89
2024/02/12 00:41:33;;;;;;;;;5.00;5.00;;;;;8.38;71.06;100093.25;2023891;28;2740888;-90
2024/02/12 00:42:48;;;;;;;;;4.17;3.50;;;;;8.36;71.07;100095.94;2019037;28;2737790;-90
2024/02/12 00:44:03;;;;;;;;;5.00;5.00;;;;;8.35;70.49;100098.59;2028258;28;2746433;-89
2024/02/12 00:45:17;;;;;;;;;6.67;5.67;;;;;8.33;71.03;100094.28;2020080;28;2746146;-90
2024/02/12 00:46:30;;;;;;;;;4.67;3.83;;;;;8.32;70.83;100097.78;2019743;28;2739902;-90
2024/02/12 00:47:44;;;;;;;;;5.67;4.00;;;;;8.29;71.58;100095.28;2051559;28;2738807;-88
2024/02/12 00:48:57;;;;;;;;;7.17;4.83;;;;;8.29;70.86;100097.06;2020323;28;2754448;-90
2024/02/12 00:50:10;;;;;;;;;3.33;3.17;;;;;8.29;71.35;100094.44;2021263;28;2740894;-89
2024/02/12 00:51:24;;;;;;;;;7.00;5.67;;;;;8.27;70.96;100097.09;2027616;28;2745142;-89
2024/02/12 00:52:37;;;;;;;;;5.33;3.00;;;;;8.25;71.05;100091.03;2019615;28;2731048;-89
2024/02/12 00:53:51;;;;;;;;;4.67;2.67;;;;;8.27;71.58;100096.25;2028571;28;2754435;-89
2024/02/12 00:55:06;;;;;;;;;5.67;2.17;;;;;8.25;71.56;100087.59;2049560;28;2754491;-89
2024/02/12 00:56:21;;;;;;;;;4.00;3.00;;;;;8.26;70.82;100095.38;2022308;28;2748277;-89
2024/02/12 00:57:34;;;;;;;;;4.00;3.17;;;;;8.22;71.18;100094.63;2029268;27;2750342;-89
2024/02/12 00:58:48;;;;;;;;;5.33;3.50;;;;;8.21;70.99;100100.78;2029454;28;2748186;-89
2024/02/12 01:00:12;;;;;;;;;4.33;3.67;;;;;8.18;71.32;100094.78;2022628;28;2754427;-90
2024/02/12 01:01:25;;;;;;;;;2.83;2.83;;;;;8.19;70.97;100105.22;2029898;28;2739884;-90
2024/02/12 01:02:40;;;;;;;;;4.50;2.50;;;;;8.18;71.52;100100.00;2031118;27;2733667;-90
2024/02/12 01:03:54;;;;;;;;;5.33;3.67;;;;;8.17;70.84;100111.41;2029369;28;2741924;-89
2024/02/12 01:05:08;;;;;;;;;7.17;3.00;;;;;8.17;71.09;100111.41;2052579;28;2754443;-89
2024/02/12 01:06:21;;;;;;;;;3.00;2.83;;;;;8.16;71.03;100107.06;2022762;28;2754478;-90
2024/02/12 01:07:36;;;;;;;;;5.00;3.00;;;;;8.15;71.13;100113.22;2029593;28;2746126;-89
2024/02/12 01:08:49;;;;;;;;;3.83;3.00;;;;;8.15;71.05;100110.59;2028382;28;2744015;-89
2024/02/12 01:10:04;;;;;;;;;1.00;1.00;;;;;8.16;70.98;100109.69;2028675;27;2730968;-89
2024/02/12 01:11:17;;;;;;;;;6.17;4.33;;;;;8.14;71.25;100109.75;2052624;27;2747177;-90
2024/02/12 01:12:31;;;;;;;;;3.67;2.83;;;;;8.14;71.38;100111.50;2051703;27;2733638;-89
2024/02/12 01:13:41;;;;;;;;;4.00;3.00;;;;;8.13;71.35;100105.41;2003956;28;2754427;-89
2024/02/12 01:14:53;;;;;;;;;3.67;2.00;;;;;8.12;71.44;100106.31;2052913;27;2748194;-89
2024/02/12 01:16:07;;;;;;;;;4.50;4.17;;;;;8.11;71.50;100109.84;2060164;27;2754459;-89
2024/02/12 01:17:22;;;;;;;;;5.67;4.00;;;;;8.09;71.47;100109.03;2021304;28;2746098;-89
2024/02/12 01:18:35;;;;;;;;;5.50;3.83;;;;;8.09;71.37;100112.53;2021810;28;2740901;-90
2024/02/12 01:19:53;;;;;;;;;8.83;4.33;;;;;8.09;71.64;100119.50;2034058;27;2744362;-89
2024/02/12 01:21:06;;;;;;;;;3.83;3.67;;;;;8.09;71.72;100120.38;2034685;27;2737801;-90
2024/02/12 01:22:19;;;;;;;;;3.00;3.00;;;;;8.07;71.51;100116.09;2037616;27;2752363;-89
2024/02/12 01:23:30;;;;;;;;;4.00;4.00;;;;;8.06;71.06;100117.84;2000887;28;2735676;-89
2024/02/12 01:24:41;;;;;;;;;6.33;3.00;;;;;8.06;71.34;100116.97;2053573;27;2725265;-89
2024/02/12 01:25:55;;;;;;;;;4.50;3.00;;;;;8.04;71.67;100122.28;2030779;27;2749229;-90
2024/02/12 01:27:06;;;;;;;;;4.33;3.67;;;;;8.03;71.56;100120.56;1996194;28;2746607;-89
2024/02/12 01:28:17;;;;;;;;;4.00;2.67;;;;;8.03;71.56;100123.16;2044531;28;2741939;-90
2024/02/12 01:29:31;;;;;;;;;3.67;3.00;;;;;8.03;72.09;100119.69;2052794;28;2754436;-89
2024/02/12 01:30:44;;;;;;;;;3.00;3.00;;;;;8.01;71.64;100126.75;2021513;28;2754448;-89
2024/02/12 01:31:57;;;;;;;;;4.00;3.00;;;;;8.00;71.80;100128.50;2027134;28;2754452;-89
2024/02/12 01:33:10;;;;;;;;;4.83;3.33;;;;;8.00;71.70;100131.13;2021035;28;2752340;-90
2024/02/12 01:34:24;;;;;;;;;4.50;3.67;;;;;7.99;71.52;100132.91;2027244;27;2741947;-90
2024/02/12 01:35:38;;;;;;;;;4.33;3.00;;;;;7.94;71.19;100128.72;2037092;27;2752382;-89
2024/02/12 01:36:54;;;;;;;;;3.00;2.83;;;;;7.94;71.50;100128.72;2057893;27;2752389;-89
2024/02/12 01:38:08;;;;;;;;;7.00;3.00;;;;;7.93;71.75;100129.59;1995204;28;2760714;-88
2024/02/12 01:39:22;;;;;;;;;5.17;4.50;;;;;7.91;71.91;100136.66;2052660;27;2738791;-88
2024/02/12 01:40:35;;;;;;;;;2.17;2.17;;;;;7.88;71.37;100135.84;2053688;27;2737310;-89
2024/02/12 01:41:48;;;;;;;;;3.00;2.17;;;;;7.86;71.97;100134.19;2030884;27;2725666;-89
2024/02/12 01:43:04;;;;;;;;;6.50;3.67;;;;;7.85;71.73;100128.09;2028213;28;2745056;-89
2024/02/12 01:44:18;;;;;;;;;4.83;3.83;;;;;7.83;71.76;100131.66;2020908;28;2754532;-89
2024/02/12 01:45:28;;;;;;;;;4.67;4.33;;;;;7.82;72.10;100136.03;1994100;28;2747696;-89
2024/02/12 01:46:39;;;;;;;;;7.33;3.67;;;;;7.80;72.07;100135.25;2036511;28;2748208;-88
2024/02/12 01:47:58;;;;;;;;;3.00;2.00;;;;;7.76;71.86;100136.22;2043895;28;2744003;-88
2024/02/12 01:49:11;;;;;;;;;3.50;3.00;;;;;7.72;72.46;100132.88;2028325;28;2739841;-88
2024/02/12 01:50:25;;;;;;;;;4.50;3.17;;;;;7.73;72.25;100125.88;2052042;27;2751305;-88
2024/02/12 01:51:40;;;;;;;;;6.50;3.83;;;;;7.74;72.04;100143.28;2033827;27;2748194;-88
2024/02/12 01:52:51;;;;;;;;;4.00;3.00;;;;;7.74;72.49;100143.28;2001510;28;2754436;-89
2024/02/12 01:54:07;;;;;;;;;5.67;3.67;;;;;7.73;71.87;100138.97;2045006;28;2744004;-89
2024/02/12 01:55:23;;;;;;;;;3.67;3.67;;;;;7.75;72.03;100145.00;2028827;28;2744016;-89
2024/02/12 01:56:36;;;;;;;;;3.50;2.33;;;;;7.76;72.29;100146.69;2050461;28;2750308;-90
2024/02/12 01:57:47;;;;;;;;;3.00;2.33;;;;;7.76;72.10;100144.06;2001169;28;2750269;-89
2024/02/12 01:59:02;;;;;;;;;9.00;5.00;;;;;7.75;72.34;100147.59;2051321;27;2748205;-88
2024/02/12 02:00:17;;;;;;;;;5.00;2.67;;;;;7.75;72.10;100147.59;2051319;28;2748576;-89
2024/02/12 02:01:30;;;;;;;;;3.83;3.00;;;;;7.76;72.28;100152.78;2021372;28;2748169;-89
2024/02/12 02:02:44;;;;;;;;;4.33;3.50;;;;;7.74;72.30;100148.50;2024327;28;2731546;-89
2024/02/12 02:03:58;;;;;;;;;3.33;2.67;;;;;7.74;72.14;100158.97;2052698;27;2748218;-89
2024/02/12 02:05:14;;;;;;;;;2.83;2.17;;;;;7.72;72.22;100147.69;2027349;27;2740875;-88
2024/02/12 02:06:28;;;;;;;;;8.00;4.83;;;;;7.69;71.38;100153.00;2052923;27;2747161;-89
2024/02/12 02:07:38;;;;;;;;;3.67;3.00;;;;;7.69;72.29;100153.88;2001927;28;2754801;-88
2024/02/12 02:08:50;;;;;;;;;5.50;5.00;;;;;7.68;71.99;100151.31;2043615;28;2739867;-88
2024/02/12 02:10:08;;;;;;;;;2.83;2.17;;;;;7.68;72.53;100151.31;2021838;28;2737777;-88
2024/02/12 02:11:23;;;;;;;;;2.67;2.67;;;;;7.68;72.61;100151.31;2028148;28;2744007;-88
2024/02/12 02:12:37;;;;;;;;;5.50;4.33;;;;;7.67;72.34;100149.59;2021831;28;2749246;-89
2024/02/12 02:13:52;;;;;;;;;4.33;3.33;;;;;7.69;72.26;100150.41;2027816;28;2735712;-88
2024/02/12 02:15:06;;;;;;;;;4.00;3.00;;;;;7.69;72.58;100158.25;2018491;28;2750265;-88
2024/02/12 02:16:19;;;;;;;;;3.50;2.83;;;;;7.69;72.52;100156.50;2038028;28;2736779;-88
2024/02/12 02:17:33;;;;;;;;;3.67;3.17;;;;;7.71;72.73;100145.97;2022562;28;2738802;-88
2024/02/12 02:18:50;;;;;;;;;5.67;2.83;;;;;7.69;72.65;100153.88;2051989;28;2760709;-88
2024/02/12 02:20:00;;;;;;;;;7.33;4.33;;;;;7.68;72.40;100153.94;1997606;28;2756874;-88
2024/02/12 02:21:12;;;;;;;;;3.33;3.00;;;;;7.68;72.25;100156.53;2021413;28;2754426;-89
2024/02/12 02:22:28;;;;;;;;;3.00;2.17;;;;;7.67;72.52;100157.44;2047275;28;2744059;-89
2024/02/12 02:23:41;;;;;;;;;5.67;5.00;;;;;7.68;72.86;100152.16;2043978;28;2748196;-88
2024/02/12 02:24:56;;;;;;;;;3.67;3.00;;;;;7.68;72.39;100157.38;2022286;27;2734621;-88
2024/02/12 02:26:10;;;;;;;;;3.83;2.83;;;;;7.71;72.95;100159.03;2047844;28;2732549;-88
2024/02/12 02:27:23;;;;;;;;;3.83;3.00;;;;;7.71;72.36;100151.19;2047033;28;2752362;-88
2024/02/12 02:28:36;;;;;;;;;6.33;3.00;;;;;7.73;72.67;100149.41;2021673;28;2731576;-88
2024/02/12 02:29:49;;;;;;;;;8.33;3.00;;;;;7.75;72.89;100158.91;1994428;28;2760696;-89
2024/02/12 02:31:04;;;;;;;;;6.67;4.00;;;;;7.78;72.72;100146.66;2045144;28;2740868;-89
2024/02/12 02:32:17;;;;;;;;;2.67;1.83;;;;;7.82;72.83;100159.59;2028816;28;2744022;-88
2024/02/12 02:33:31;;;;;;;;;7.00;3.17;;;;;7.82;72.58;100149.13;2042918;28;2754471;-89
2024/02/12 02:34:44;;;;;;;;;3.17;3.17;;;;;7.86;72.56;100149.88;2020200;28;2752358;-89
2024/02/12 02:35:57;;;;;;;;;5.00;2.83;;;;;7.89;72.58;100144.56;2020872;28;2746117;-89
2024/02/12 02:37:10;;;;;;;;;5.33;3.00;;;;;7.90;72.27;100145.41;1995661;28;2755492;-88
2024/02/12 02:38:23;;;;;;;;;6.67;3.67;;;;;7.91;72.58;100141.88;2059880;27;2748205;-89
2024/02/12 02:39:36;;;;;;;;;1.17;1.17;;;;;7.91;71.90;100144.50;2021039;28;2733603;-88
2024/02/12 02:40:50;;;;;;;;;6.17;3.33;;;;;7.93;72.74;100147.91;2046959;28;2739848;-88
2024/02/12 02:42:03;;;;;;;;;4.00;3.33;;;;;7.94;72.51;100149.63;2034280;27;2745041;-88
2024/02/12 02:43:16;;;;;;;;;6.67;3.33;;;;;7.93;71.80;100140.06;2051429;28;2750289;-88
2024/02/12 02:44:27;;;;;;;;;6.33;3.67;;;;;7.93;71.92;100145.31;1993511;28;2751345;-88
2024/02/12 02:45:38;;;;;;;;;3.00;1.33;;;;;7.92;72.55;100148.84;2044281;28;2735693;-88
2024/02/12 02:46:50;;;;;;;;;5.20;2.60;;;;;7.94;72.10;100150.50;2004837;27;2735239;-87
2024/02/12 02:48:04;;;;;;;;;3.33;3.00;;;;;7.93;72.43;100153.16;2051146;27;2750293;-88
2024/02/12 02:49:17;;;;;;;;;4.67;2.67;;;;;7.90;72.01;100145.41;2029224;28;2735694;-89
2024/02/12 02:50:31;;;;;;;;;3.00;3.00;;;;;7.91;71.94;100147.13;2020577;28;2735803;-88
2024/02/12 02:51:45;;;;;;;;;4.00;3.50;;;;;7.91;72.08;100144.50;2043357;28;2754442;-89
2024/02/12 02:52:59;;;;;;;;;2.33;2.00;;;;;7.92;72.03;100143.59;2015447;28;2724271;-88
2024/02/12 02:54:14;;;;;;;;;2.50;1.50;;;;;7.92;71.50;100143.59;2046461;28;2744027;-89
2024/02/12 02:55:28;;;;;;;;;2.00;2.00;;;;;7.90;72.01;100142.81;2044046;28;2741924;-89
2024/02/12 02:56:41;;;;;;;;;3.17;2.33;;;;;7.90;72.45;100148.03;2046742;27;2737784;-90
2024/02/12 02:57:55;;;;;;;;;4.50;3.00;;;;;7.91;72.00;100145.34;2035527;27;2754432;-88
2024/02/12 02:59:09;;;;;;;;;3.50;3.50;;;;;7.90;71.65;100146.28;2021563;28;2735691;-89
2024/02/12 03:00:25;;;;;;;;;2.83;2.33;;;;;7.93;71.97;100145.31;2028752;28;2739840;-89
2024/02/12 03:01:38;;;;;;;;;3.33;2.00;;;;;7.94;72.11;100141.78;2029690;27;2752352;-89
2024/02/12 03:02:52;;;;;;;;;1.83;1.83;;;;;7.95;72.37;100148.75;2048868;28;2735710;-89
2024/02/12 03:04:06;;;;;;;;;3.00;3.00;;;;;7.95;72.22;100141.72;2028294;27;2732546;-89
2024/02/12 03:05:17;;;;;;;;;5.00;4.00;;;;;7.97;72.32;100145.19;2011001;27;2754551;-88
2024/02/12 03:06:30;;;;;;;;;4.33;1.67;;;;;7.99;71.63;100143.38;2053009;28;2738125;-89
2024/02/12 03:07:45;;;;;;;;;4.00;2.00;;;;;8.00;72.16;100144.19;2024685;28;2728376;-88
2024/02/12 03:08:58;;;;;;;;;3.17;2.50;;;;;8.01;72.09;100145.94;2053768;28;2732596;-89
2024/02/12 03:10:12;;;;;;;;;3.83;2.00;;;;;8.02;72.48;100149.41;2051186;27;2737753;-89
2024/02/12 03:11:26;;;;;;;;;3.83;3.00;;;;;8.04;72.32;100147.59;2029106;28;2746098;-89
2024/02/12 03:12:36;;;;;;;;;6.00;3.33;;;;;8.03;71.88;100149.34;2026261;28;2754448;-89
2024/02/12 03:13:48;;;;;;;;;3.00;2.00;;;;;8.06;72.05;100148.41;2039364;28;2738826;-89
2024/02/12 03:15:02;;;;;;;;;2.83;2.00;;;;;8.07;71.73;100153.59;2044523;28;2737757;-89
2024/02/12 03:16:16;;;;;;;;;4.50;3.67;;;;;8.08;71.54;100151.81;2028695;27;2746116;-89
2024/02/12 03:17:26;;;;;;;;;5.67;3.33;;;;;8.08;71.87;100157.03;1995651;28;2741948;-89
2024/02/12 03:18:37;;;;;;;;;6.33;3.00;;;;;8.08;71.59;100150.06;2033188;27;2754525;-89
2024/02/12 03:19:48;;;;;;;;;3.00;3.00;;;;;8.07;72.04;100147.50;2044512;28;2741916;-89
2024/02/12 03:21:01;;;;;;;;;4.67;3.50;;;;;8.09;71.99;100143.06;2015348;28;2731523;-89
2024/02/12 03:22:16;;;;;;;;;4.17;2.67;;;;;8.12;72.00;100155.19;2015913;28;2732549;-89
2024/02/12 03:23:30;;;;;;;;;6.00;3.33;;;;;8.11;71.51;100149.09;2028241;28;2754453;-89
2024/02/12 03:24:43;;;;;;;;;4.00;3.17;;;;;8.14;71.54;100153.38;2028078;27;2740886;-89
2024/02/12 03:25:56;;;;;;;;;6.00;3.00;;;;;8.14;71.55;100140.28;2028134;27;2752380;-89
2024/02/12 03:27:09;;;;;;;;;5.50;4.17;;;;;8.14;72.05;100146.41;2028077;27;2750294;-89
2024/02/12 03:28:20;;;;;;;;;11.00;4.00;;;;;8.17;72.22;100154.13;1999549;28;3503395;-89
2024/02/12 03:29:32;;;;;;;;;8.00;3.50;;;;;8.16;71.82;100156.81;2051505;27;2762815;-89
2024/02/12 03:30:46;;;;;;;;;3.50;3.00;;;;;8.17;71.67;100151.50;2060487;27;2752360;-89
2024/02/12 03:31:59;;;;;;;;;8.17;4.67;;;;;8.18;71.31;100152.38;2020055;27;2754478;-89
2024/02/12 03:33:12;;;;;;;;;4.33;4.33;;;;;8.18;71.56;100155.00;2017171;28;2750277;-89
2024/02/12 03:34:22;;;;;;;;;7.00;3.00;;;;;8.19;71.76;100152.34;2003151;27;2754442;-90
2024/02/12 03:35:33;;;;;;;;;4.00;4.00;;;;;8.20;71.73;100143.56;2051071;28;2754430;-89
2024/02/12 03:36:47;;;;;;;;;2.50;2.50;;;;;8.21;71.71;100145.28;2052139;27;2746106;-89
2024/02/12 03:38:00;;;;;;;;;4.33;4.33;;;;;8.24;71.64;100149.56;2027692;27;2754467;-89
2024/02/12 03:39:14;;;;;;;;;3.50;2.83;;;;;8.25;71.58;100148.66;2027159;28;2739872;-89
2024/02/12 03:40:28;;;;;;;;;3.00;3.00;;;;;8.26;71.69;100152.13;2022014;28;2752352;-89
2024/02/12 03:41:41;;;;;;;;;5.00;2.33;;;;;8.25;71.84;100156.50;2024315;28;2738311;-89
2024/02/12 03:42:54;;;;;;;;;2.83;2.33;;;;;8.26;71.38;100155.59;2027607;27;2746091;-89
2024/02/12 03:44:09;;;;;;;;;3.33;2.50;;;;;8.28;71.94;100158.16;2030484;27;2728403;-89
2024/02/12 03:45:22;;;;;;;;;2.50;2.33;;;;;8.29;71.53;100162.50;2028007;28;2739833;-89
2024/02/12 03:46:45;;;;;;;;;2.67;2.00;;;;;8.29;71.59;100162.50;2052746;27;2748701;-89
2024/02/12 03:48:00;;;;;;;;;5.17;3.00;;;;;8.27;71.45;100159.09;2030343;27;2741939;-89
2024/02/12 03:59:55;;;;;;;;;5.00;4.00;;;;;8.38;71.76;100171.81;2030701;27;2736724;-89
2024/02/12 04:01:08;;;;;;;;;4.83;4.33;;;;;8.39;72.04;100170.91;2027967;27;2739860;-89
2024/02/12 04:02:22;;;;;;;;;5.00;5.00;;;;;8.39;72.07;100171.78;2027884;28;2741973;-89
2024/02/12 04:03:35;;;;;;;;;3.83;3.67;;;;;8.40;71.94;100170.00;2020974;28;2752336;-89
2024/02/12 04:04:46;;;;;;;;;5.00;4.00;;;;;8.42;72.12;100173.44;2000643;28;2754436;-89
2024/02/12 04:05:57;;;;;;;;;5.33;3.33;;;;;8.42;71.82;100166.41;2042286;28;2750280;-89
2024/02/12 04:07:11;;;;;;;;;6.17;5.67;;;;;8.42;72.14;100160.34;2028751;27;2751333;-89
2024/02/12 04:08:24;;;;;;;;;5.17;5.00;;;;;8.43;72.19;100159.44;2036714;27;2744015;-89
2024/02/12 04:09:41;;;;;;;;;6.00;3.50;;;;;8.44;72.18;100169.00;2028123;28;2754436;-89
2024/02/12 04:10:51;;;;;;;;;7.67;5.00;;;;;8.44;72.00;100166.38;2004205;27;2748248;-89
2024/02/12 04:12:07;;;;;;;;;5.25;4.75;;;;;8.42;71.64;100169.03;2053740;27;2755466;-89
2024/02/12 04:13:22;;;;;;;;;6.33;5.33;;;;;8.46;72.10;100171.56;2053259;28;2744026;-89
2024/02/12 04:14:35;;;;;;;;;6.00;4.67;;;;;8.44;72.16;100169.00;2034447;27;2737760;-90
2024/02/12 04:15:49;;;;;;;;;6.50;4.67;;;;;8.45;72.01;100170.69;2024714;27;2754459;-89
2024/02/12 04:17:03;;;;;;;;;8.33;5.00;;;;;8.45;72.02;100173.31;1991095;28;2749743;-89
2024/02/12 04:18:16;;;;;;;;;7.33;6.33;;;;;8.45;71.78;100162.84;2044281;28;2748164;-89
2024/02/12 04:19:30;;;;;;;;;6.67;5.17;;;;;8.46;71.71;100166.31;2020548;28;2741948;-89
2024/02/12 04:20:46;;;;;;;;;5.17;5.00;;;;;8.47;71.58;100168.06;2029156;28;2747136;-89
2024/02/12 04:21:59;;;;;;;;;3.33;3.33;;;;;8.47;71.63;100179.34;2029292;27;2749227;-89
2024/02/12 04:23:15;;;;;;;;;6.17;6.17;;;;;8.47;72.16;100181.16;2035647;27;2744000;-89
2024/02/12 04:24:29;;;;;;;;;7.17;6.50;;;;;8.45;71.81;100170.69;2035220;27;2736759;-89
2024/02/12 04:25:39;;;;;;;;;9.00;6.00;;;;;8.48;72.06;100175.84;2015451;28;3481470;-89
2024/02/12 04:26:52;;;;;;;;;5.33;4.33;;;;;8.47;71.92;100176.75;2048185;27;2750264;-89
2024/02/12 04:28:09;;;;;;;;;6.50;4.67;;;;;8.47;71.82;100184.59;2051129;28;2744011;-89
2024/02/12 04:29:26;;;;;;;;;7.17;6.67;;;;;8.48;71.85;100182.84;2027822;27;2743024;-89
2024/02/12 04:30:37;;;;;;;;;6.00;4.00;;;;;8.46;71.81;100182.91;2003324;28;2750765;-89
2024/02/12 04:31:48;;;;;;;;;10.00;8.00;;;;;8.46;71.61;100185.53;2016438;28;2754538;-89
2024/02/12 04:32:59;;;;;;;;;10.67;7.33;;;;;8.46;71.88;100176.81;2023380;28;2766974;-89
2024/02/12 04:34:13;;;;;;;;;8.00;5.83;;;;;8.45;72.26;100181.19;2045995;28;2750292;-89
2024/02/12 04:35:26;;;;;;;;;8.33;6.00;;;;;8.44;71.88;100185.56;2044567;28;2748216;-89
2024/02/12 04:36:41;;;;;;;;;10.50;8.17;;;;;8.42;71.66;100181.31;2019900;28;2752399;-89
2024/02/12 04:37:55;;;;;;;;;5.50;5.17;;;;;8.43;71.86;100183.00;2025952;27;2752324;-89
2024/02/12 04:39:14;;;;;;;;;7.33;5.00;;;;;8.42;72.14;100179.50;2032781;27;2745076;-90
2024/02/12 04:40:27;;;;;;;;;7.50;6.67;;;;;8.43;71.68;100180.38;2022618;28;2751302;-89
2024/02/12 04:41:41;;;;;;;;;8.33;6.50;;;;;8.43;72.21;100183.00;2044050;28;2745111;-89
2024/02/12 04:42:55;;;;;;;;;8.50;6.33;;;;;8.40;72.04;100177.84;2035209;27;2753482;-89
2024/02/12 04:44:08;;;;;;;;;5.17;5.00;;;;;8.42;72.40;100183.91;2019435;28;2746110;-89
2024/02/12 04:45:21;;;;;;;;;5.00;5.00;;;;;8.42;72.48;100183.91;2046165;27;2736759;-89
2024/02/12 04:46:38;;;;;;;;;8.33;5.33;;;;;8.41;72.07;100184.81;2028182;27;2744014;-88
2024/02/12 04:47:51;;;;;;;;;4.67;3.83;;;;;8.40;72.14;100185.72;2013846;28;2741975;-89
2024/02/12 04:49:05;;;;;;;;;7.00;4.83;;;;;8.41;72.24;100187.44;2021138;28;2747139;-89
2024/02/12 04:50:18;;;;;;;;;6.33;4.00;;;;;8.41;72.17;100190.91;2029538;27;2746139;-89
2024/02/12 04:51:32;;;;;;;;;4.00;3.83;;;;;8.39;72.13;100192.72;2037128;27;2752376;-89
2024/02/12 04:52:45;;;;;;;;;5.17;4.67;;;;;8.39;72.18;100186.63;2036068;27;2742965;-89
2024/02/12 04:53:56;;;;;;;;;6.33;6.33;;;;;8.39;71.93;100190.13;1995898;28;3450265;-88
2024/02/12 04:55:10;;;;;;;;;8.67;4.33;;;;;8.39;72.57;100189.25;2043675;28;2750743;-89
2024/02/12 04:56:24;;;;;;;;;3.83;3.83;;;;;8.38;72.13;100193.63;2037972;27;2734090;-89
2024/02/12 04:57:38;;;;;;;;;5.50;4.17;;;;;8.38;72.42;100187.53;2028804;28;2746087;-89
2024/02/12 04:58:49;;;;;;;;;7.00;6.00;;;;;8.38;72.47;100198.00;2001856;27;2754458;-89
2024/02/12 05:00:01;;;;;;;;;5.25;4.75;;;;;8.38;72.37;100198.00;2050619;28;2745068;-89
2024/02/12 05:01:14;;;;;;;;;3.83;3.67;;;;;8.37;72.53;100191.06;2020783;28;2749229;-89
2024/02/12 05:02:28;;;;;;;;;4.67;4.00;;;;;8.38;72.51;100192.75;2020639;28;2754452;-90
2024/02/12 05:03:41;;;;;;;;;6.00;4.00;;;;;8.37;72.25;100191.06;2024614;28;2745132;-89
2024/02/12 05:04:51;;;;;;;;;6.00;4.00;;;;;8.36;72.55;100190.22;2001618;28;2748693;-89
2024/02/12 05:06:02;;;;;;;;;4.00;4.00;;;;;8.37;72.76;100193.69;2055936;27;2754451;-89
2024/02/12 05:07:16;;;;;;;;;7.00;4.00;;;;;8.36;72.07;100191.97;2053391;27;2737765;-89
2024/02/12 05:08:27;;;;;;;;;4.33;4.33;;;;;8.33;72.53;100185.91;2002828;28;2750280;-89
2024/02/12 05:09:39;;;;;;;;;4.00;4.00;;;;;8.36;72.45;100194.59;2042542;28;2750262;-89
2024/02/12 05:10:55;;;;;;;;;7.50;5.83;;;;;8.35;72.73;100198.09;2044851;28;2746134;-89
2024/02/12 05:12:05;;;;;;;;;6.00;6.00;;;;;8.35;72.58;100198.97;2001703;28;2752336;-89
2024/02/12 05:13:18;;;;;;;;;6.60;5.80;;;;;8.35;72.71;100196.34;2051864;28;2737786;-89
2024/02/12 05:14:32;;;;;;;;;6.50;5.17;;;;;8.35;72.48;100198.09;2030095;27;2751310;-89
2024/02/12 05:15:46;;;;;;;;;4.00;4.00;;;;;8.34;72.63;100194.66;2032585;27;2750637;-88
2024/02/12 05:17:03;;;;;;;;;5.00;5.00;;;;;8.35;72.61;100188.47;2044363;28;2754454;-89
2024/02/12 05:22:48;;;;;;;;;7.33;6.00;;;;;8.35;72.60;100198.09;2002511;28;2750348;-89
2024/02/12 05:24:00;;;;;;;;;6.00;4.00;;;;;8.36;72.44;100205.06;2051615;28;2739872;-89
2024/02/12 05:25:11;;;;;;;;;9.33;6.00;;;;;8.32;72.90;100205.16;2023328;27;3484667;-89
2024/02/12 05:26:24;;;;;;;;;5.50;5.50;;;;;8.32;72.15;100192.06;2054562;27;2748169;-89
2024/02/12 05:27:38;;;;;;;;;9.83;5.00;;;;;8.34;72.79;100197.25;2027189;28;2761730;-88
2024/02/12 05:28:52;;;;;;;;;5.00;4.50;;;;;8.32;73.37;100199.91;2027395;28;2746122;-89
2024/02/12 05:30:06;;;;;;;;;5.83;5.83;;;;;8.36;72.95;100197.19;2028700;27;2746083;-88
2024/02/12 05:31:20;;;;;;;;;7.00;7.00;;;;;8.35;73.05;100195.47;2034661;27;2749258;-89
2024/02/12 05:32:33;;;;;;;;;7.00;5.50;;;;;8.36;72.64;100200.69;2031212;27;2744012;-89
2024/02/12 05:33:47;;;;;;;;;7.17;6.00;;;;;8.35;73.02;100191.09;2036455;27;2746614;-89
2024/02/12 05:35:00;;;;;;;;;5.67;4.33;;;;;8.36;72.97;100190.22;2035822;27;2737863;-89
2024/02/12 05:36:20;;;;;;;;;7.00;6.17;;;;;8.36;72.31;100194.59;2029193;27;2746125;-89
2024/02/12 05:37:34;;;;;;;;;7.00;6.83;;;;;8.36;72.88;100197.19;2023618;28;2745041;-89
2024/02/12 05:38:49;;;;;;;;;5.67;5.67;;;;;8.36;72.74;100192.81;2023990;27;2746099;-89
2024/02/12 05:40:02;;;;;;;;;8.50;5.50;;;;;8.37;73.09;100196.31;2036860;27;2745192;-89
2024/02/12 05:41:15;;;;;;;;;4.83;4.50;;;;;8.37;72.80;100193.69;2036431;27;2733587;-88
2024/02/12 05:42:28;;;;;;;;;6.67;6.67;;;;;8.36;72.57;100195.44;2031409;27;2752337;-89
2024/02/12 05:43:42;;;;;;;;;7.17;6.67;;;;;8.36;72.87;100197.19;2020579;28;2749274;-88
2024/02/12 05:44:55;;;;;;;;;7.83;7.00;;;;;8.33;73.00;100196.41;2023216;28;2741940;-89
2024/02/12 05:46:06;;;;;;;;;5.00;4.33;;;;;8.33;72.89;100193.78;2002525;28;2737856;-89
2024/02/12 05:47:18;;;;;;;;;5.00;4.00;;;;;8.35;72.72;100198.09;2048767;28;2741943;-90
2024/02/12 05:48:32;;;;;;;;;5.67;4.50;;;;;8.32;72.76;100193.84;2031528;27;2744044;-90
2024/02/12 05:49:46;;;;;;;;;7.83;6.00;;;;;8.31;72.84;100200.84;2036111;27;2748174;-89
2024/02/12 05:50:59;;;;;;;;;8.50;6.83;;;;;8.31;72.63;100198.22;2031170;27;2756615;-88
2024/02/12 05:52:12;;;;;;;;;6.83;6.83;;;;;8.31;72.64;100206.06;2023611;27;2750314;-89
2024/02/12 05:53:28;;;;;;;;;6.17;6.00;;;;;8.32;72.82;100206.94;2027542;28;2754535;-88